SBOSBO MEX / MMMX
Speedbird OnlineSpeedbird Online MEX / MMMX

Licenciado Benito Juarez International Airport
06:00 12.9°C

Location Mexico City, Mexico
Latitude: 19.4363
Longitude: -99.072098
Local Time 06:00 on 12 Apr 2024
UTC -6 hours (America/Mexico_City)
Currency £1 equals MXN 20.64
METAR MMMX 121049Z 07006KT 7SM SKC 10/04 A3039 NOSIG RMK AC HZY
TAF TAF MMMX 121059Z 1212/1312 09005KT P6SM SKC TX28/1221Z TN10/1213Z FM121800 03010KT P6SM SCT020 FM130000 36010KT P6SM SCT020 FM130600 00000KT P6SM SKC
Weather As Of 12 Apr 2024 06:00
Description Scattered clouds
Wind 5 km/h from North (15°)
Cloud Cover 25%
Precipitation Rain: none, Snow: none
Sunrise 06:20
Sunset 18:53
NOTAM 20 active NOTAM
Rotations During the last 90 days there were
59 flights from LHR
57 flights to LHR
Lounges American Airlines Admirals Club, International Departure Terminal 1
The Grand Lounge Elite, Terminal 1
Web Airport Website | Wikipedia
Codes IATA: MEX
ICAO: MMMX
Altitude 2230 Meter / 7316 Feet
Distance 8,941 KM / 5,556 Miles
from London.
Runways
RunwayLength (m)Surface
05L3952Asphalt
05R3900Asphalt
23L3900Asphalt
23R3952Asphalt
Radio
TypeDescriptionFrequency
APPMEXICO APP121.2
ARRMEXICO ARR129.6
ATISATIS127.65
CLDMEXICO CLNC DEL122.1
DEPMEXICO DEP120.5
GNDGND121
RDOMEXICO INFO126.9
TWRMEXICO TWR118.55
Live ATC



Support Speedbird Online

© 2017-2024 Speedbird Online